sensor_id;sensor_type;location;lat;lon;timestamp;P1;durP1;ratioP1;P2;durP2;ratioP2
57313;SDS011;53202;50.976;18.216;2023-12-28T00:00:40;34.00;;;19.90;;
57313;SDS011;53202;50.976;18.216;2023-12-28T00:01:41;50.80;;;21.30;;
57313;SDS011;53202;50.976;18.216;2023-12-28T00:02:42;43.50;;;19.90;;
57313;SDS011;53202;50.976;18.216;2023-12-28T00:03:43;44.80;;;20.50;;
57313;SDS011;53202;50.976;18.216;2023-12-28T00:04:43;45.80;;;20.40;;
57313;SDS011;53202;50.976;18.216;2023-12-28T00:05:44;42.90;;;20.80;;
57313;SDS011;53202;50.976;18.216;2023-12-28T00:06:45;46.50;;;21.40;;
57313;SDS011;53202;50.976;18.216;2023-12-28T00:07:46;44.70;;;21.20;;
57313;SDS011;53202;50.976;18.216;2023-12-28T00:08:47;30.20;;;18.00;;
57313;SDS011;53202;50.976;18.216;2023-12-28T00:09:49;43.20;;;19.30;;
57313;SDS011;53202;50.976;18.216;2023-12-28T00:10:50;43.50;;;21.20;;
57313;SDS011;53202;50.976;18.216;2023-12-28T00:11:51;43.50;;;20.80;;
57313;SDS011;53202;50.976;18.216;2023-12-28T00:12:52;40.30;;;20.50;;
57313;SDS011;53202;50.976;18.216;2023-12-28T00:13:54;35.40;;;19.20;;
57313;SDS011;53202;50.976;18.216;2023-12-28T00:14:55;42.00;;;20.40;;
57313;SDS011;53202;50.976;18.216;2023-12-28T00:15:56;47.00;;;20.20;;
57313;SDS011;53202;50.976;18.216;2023-12-28T00:16:57;37.20;;;19.00;;
57313;SDS011;53202;50.976;18.216;2023-12-28T00:17:58;37.80;;;18.80;;
57313;SDS011;53202;50.976;18.216;2023-12-28T00:18:59;39.20;;;18.30;;
57313;SDS011;53202;50.976;18.216;2023-12-28T00:20:02;40.20;;;19.60;;
57313;SDS011;53202;50.976;18.216;2023-12-28T00:21:03;34.20;;;18.10;;
57313;SDS011;53202;50.976;18.216;2023-12-28T00:22:04;36.10;;;18.50;;
57313;SDS011;53202;50.976;18.216;2023-12-28T00:23:05;37.10;;;18.70;;
57313;SDS011;53202;50.976;18.216;2023-12-28T00:24:07;42.70;;;18.80;;
57313;SDS011;53202;50.976;18.216;2023-12-28T00:25:07;43.00;;;18.40;;
57313;SDS011;53202;50.976;18.216;2023-12-28T00:26:08;35.00;;;18.20;;
57313;SDS011;53202;50.976;18.216;2023-12-28T00:27:10;39.80;;;19.10;;
57313;SDS011;53202;50.976;18.216;2023-12-28T00:28:11;47.50;;;19.70;;
57313;SDS011;53202;50.976;18.216;2023-12-28T00:29:13;41.30;;;18.70;;
57313;SDS011;53202;50.976;18.216;2023-12-28T00:30:14;40.40;;;19.10;;
57313;SDS011;53202;50.976;18.216;2023-12-28T00:31:17;45.20;;;19.60;;
57313;SDS011;53202;50.976;18.216;2023-12-28T00:32:18;41.40;;;19.00;;
57313;SDS011;53202;50.976;18.216;2023-12-28T00:33:19;34.50;;;18.70;;
57313;SDS011;53202;50.976;18.216;2023-12-28T00:34:20;54.20;;;19.50;;
57313;SDS011;53202;50.976;18.216;2023-12-28T00:35:21;42.50;;;19.30;;
57313;SDS011;53202;50.976;18.216;2023-12-28T00:36:22;38.90;;;18.10;;
57313;SDS011;53202;50.976;18.216;2023-12-28T00:37:23;41.80;;;18.10;;
57313;SDS011;53202;50.976;18.216;2023-12-28T00:38:24;34.40;;;18.30;;
57313;SDS011;53202;50.976;18.216;2023-12-28T00:39:25;35.80;;;18.70;;
57313;SDS011;53202;50.976;18.216;2023-12-28T00:40:26;38.50;;;17.80;;
57313;SDS011;53202;50.976;18.216;2023-12-28T00:41:27;37.30;;;19.50;;
57313;SDS011;53202;50.976;18.216;2023-12-28T00:42:28;39.50;;;19.30;;
57313;SDS011;53202;50.976;18.216;2023-12-28T00:43:29;32.20;;;17.80;;
57313;SDS011;53202;50.976;18.216;2023-12-28T00:44:30;42.20;;;19.30;;
57313;SDS011;53202;50.976;18.216;2023-12-28T00:45:31;41.30;;;18.50;;
57313;SDS011;53202;50.976;18.216;2023-12-28T00:46:32;35.60;;;17.90;;
57313;SDS011;53202;50.976;18.216;2023-12-28T00:47:33;30.90;;;17.40;;
57313;SDS011;53202;50.976;18.216;2023-12-28T00:48:34;36.40;;;17.30;;
57313;SDS011;53202;50.976;18.216;2023-12-28T00:49:35;38.80;;;18.40;;
57313;SDS011;53202;50.976;18.216;2023-12-28T00:50:36;41.70;;;16.60;;
57313;SDS011;53202;50.976;18.216;2023-12-28T00:51:37;26.70;;;15.10;;
57313;SDS011;53202;50.976;18.216;2023-12-28T00:52:38;40.00;;;19.80;;
57313;SDS011;53202;50.976;18.216;2023-12-28T00:53:39;30.00;;;17.90;;
57313;SDS011;53202;50.976;18.216;2023-12-28T00:54:40;44.10;;;17.70;;
57313;SDS011;53202;50.976;18.216;2023-12-28T00:55:41;31.90;;;15.90;;
57313;SDS011;53202;50.976;18.216;2023-12-28T00:56:42;38.90;;;19.00;;
57313;SDS011;53202;50.976;18.216;2023-12-28T00:57:43;40.50;;;18.00;;
57313;SDS011;53202;50.976;18.216;2023-12-28T00:58:44;33.10;;;16.10;;
57313;SDS011;53202;50.976;18.216;2023-12-28T00:59:45;28.50;;;15.90;;
57313;SDS011;53202;50.976;18.216;2023-12-28T01:00:46;28.60;;;16.60;;
57313;SDS011;53202;50.976;18.216;2023-12-28T01:01:47;33.60;;;16.90;;
57313;SDS011;53202;50.976;18.216;2023-12-28T01:02:48;34.50;;;17.30;;
57313;SDS011;53202;50.976;18.216;2023-12-28T01:03:51;34.40;;;18.00;;
57313;SDS011;53202;50.976;18.216;2023-12-28T01:04:52;36.80;;;16.70;;
57313;SDS011;53202;50.976;18.216;2023-12-28T01:05:53;28.80;;;17.10;;
57313;SDS011;53202;50.976;18.216;2023-12-28T01:06:54;40.90;;;16.80;;
57313;SDS011;53202;50.976;18.216;2023-12-28T01:07:55;33.50;;;16.10;;
57313;SDS011;53202;50.976;18.216;2023-12-28T01:08:56;28.60;;;15.70;;
57313;SDS011;53202;50.976;18.216;2023-12-28T01:09:57;37.40;;;17.20;;
57313;SDS011;53202;50.976;18.216;2023-12-28T01:10:58;32.70;;;15.70;;
57313;SDS011;53202;50.976;18.216;2023-12-28T01:11:59;28.40;;;14.60;;
57313;SDS011;53202;50.976;18.216;2023-12-28T01:13:00;33.10;;;16.30;;
57313;SDS011;53202;50.976;18.216;2023-12-28T01:14:01;29.80;;;15.90;;
57313;SDS011;53202;50.976;18.216;2023-12-28T01:15:03;31.50;;;15.40;;
57313;SDS011;53202;50.976;18.216;2023-12-28T01:16:04;26.00;;;14.80;;
57313;SDS011;53202;50.976;18.216;2023-12-28T01:17:06;30.00;;;16.30;;
57313;SDS011;53202;50.976;18.216;2023-12-28T01:18:07;29.80;;;15.50;;
57313;SDS011;53202;50.976;18.216;2023-12-28T01:19:08;33.60;;;15.60;;
57313;SDS011;53202;50.976;18.216;2023-12-28T01:20:09;29.80;;;14.50;;
57313;SDS011;53202;50.976;18.216;2023-12-28T01:21:10;39.40;;;17.20;;
57313;SDS011;53202;50.976;18.216;2023-12-28T01:22:11;33.40;;;17.60;;
57313;SDS011;53202;50.976;18.216;2023-12-28T01:23:12;31.40;;;15.80;;
57313;SDS011;53202;50.976;18.216;2023-12-28T01:24:13;30.40;;;15.20;;
57313;SDS011;53202;50.976;18.216;2023-12-28T01:25:14;29.00;;;16.40;;
57313;SDS011;53202;50.976;18.216;2023-12-28T01:26:15;30.80;;;16.00;;
57313;SDS011;53202;50.976;18.216;2023-12-28T01:27:17;33.00;;;16.10;;
57313;SDS011;53202;50.976;18.216;2023-12-28T01:28:18;34.10;;;16.60;;
57313;SDS011;53202;50.976;18.216;2023-12-28T01:29:19;32.70;;;16.80;;
57313;SDS011;53202;50.976;18.216;2023-12-28T01:30:20;32.80;;;15.40;;
57313;SDS011;53202;50.976;18.216;2023-12-28T01:31:21;30.50;;;16.10;;
57313;SDS011;53202;50.976;18.216;2023-12-28T01:32:22;26.80;;;14.90;;
57313;SDS011;53202;50.976;18.216;2023-12-28T01:33:23;25.30;;;14.70;;
57313;SDS011;53202;50.976;18.216;2023-12-28T01:34:24;33.30;;;16.10;;
57313;SDS011;53202;50.976;18.216;2023-12-28T01:35:25;32.10;;;15.80;;
57313;SDS011;53202;50.976;18.216;2023-12-28T01:36:26;31.30;;;16.40;;
57313;SDS011;53202;50.976;18.216;2023-12-28T01:37:29;33.20;;;15.90;;
57313;SDS011;53202;50.976;18.216;2023-12-28T01:38:33;33.70;;;17.40;;
57313;SDS011;53202;50.976;18.216;2023-12-28T01:39:34;31.00;;;16.20;;
57313;SDS011;53202;50.976;18.216;2023-12-28T01:40:35;31.10;;;15.90;;
57313;SDS011;53202;50.976;18.216;2023-12-28T01:41:36;34.50;;;16.60;;
57313;SDS011;53202;50.976;18.216;2023-12-28T01:42:38;27.50;;;15.80;;
57313;SDS011;53202;50.976;18.216;2023-12-28T01:43:39;25.70;;;14.60;;
57313;SDS011;53202;50.976;18.216;2023-12-28T01:44:40;36.00;;;17.40;;
57313;SDS011;53202;50.976;18.216;2023-12-28T01:45:41;30.40;;;15.30;;
57313;SDS011;53202;50.976;18.216;2023-12-28T01:46:42;32.90;;;16.40;;
57313;SDS011;53202;50.976;18.216;2023-12-28T01:47:43;33.10;;;15.20;;
57313;SDS011;53202;50.976;18.216;2023-12-28T01:48:46;26.90;;;14.90;;
57313;SDS011;53202;50.976;18.216;2023-12-28T01:49:49;31.80;;;18.30;;
57313;SDS011;53202;50.976;18.216;2023-12-28T01:50:50;31.70;;;16.80;;
57313;SDS011;53202;50.976;18.216;2023-12-28T01:51:51;33.40;;;15.90;;
57313;SDS011;53202;50.976;18.216;2023-12-28T01:52:52;34.40;;;17.40;;
57313;SDS011;53202;50.976;18.216;2023-12-28T01:53:55;25.80;;;14.00;;
57313;SDS011;53202;50.976;18.216;2023-12-28T01:54:58;29.50;;;17.40;;
57313;SDS011;53202;50.976;18.216;2023-12-28T01:55:59;26.40;;;15.80;;
57313;SDS011;53202;50.976;18.216;2023-12-28T01:57:00;26.80;;;14.00;;
57313;SDS011;53202;50.976;18.216;2023-12-28T01:58:02;26.90;;;14.90;;
57313;SDS011;53202;50.976;18.216;2023-12-28T01:59:03;30.10;;;14.30;;
57313;SDS011;53202;50.976;18.216;2023-12-28T02:00:04;30.00;;;14.60;;
57313;SDS011;53202;50.976;18.216;2023-12-28T02:01:06;42.30;;;16.20;;
57313;SDS011;53202;50.976;18.216;2023-12-28T02:02:07;30.20;;;15.80;;
57313;SDS011;53202;50.976;18.216;2023-12-28T02:03:08;28.90;;;14.10;;
57313;SDS011;53202;50.976;18.216;2023-12-28T02:04:09;28.30;;;15.10;;
57313;SDS011;53202;50.976;18.216;2023-12-28T02:05:11;30.10;;;14.50;;
57313;SDS011;53202;50.976;18.216;2023-12-28T02:06:13;30.20;;;16.00;;
57313;SDS011;53202;50.976;18.216;2023-12-28T02:07:16;32.00;;;14.80;;
57313;SDS011;53202;50.976;18.216;2023-12-28T02:08:17;28.70;;;16.60;;
57313;SDS011;53202;50.976;18.216;2023-12-28T02:09:19;31.60;;;14.50;;
57313;SDS011;53202;50.976;18.216;2023-12-28T02:10:19;37.80;;;17.80;;
57313;SDS011;53202;50.976;18.216;2023-12-28T02:11:21;32.70;;;14.80;;
57313;SDS011;53202;50.976;18.216;2023-12-28T02:12:22;28.50;;;14.30;;
57313;SDS011;53202;50.976;18.216;2023-12-28T02:13:23;26.30;;;15.80;;
57313;SDS011;53202;50.976;18.216;2023-12-28T02:14:24;29.30;;;14.00;;
57313;SDS011;53202;50.976;18.216;2023-12-28T02:15:25;28.20;;;16.20;;
57313;SDS011;53202;50.976;18.216;2023-12-28T02:16:32;22.70;;;14.00;;
57313;SDS011;53202;50.976;18.216;2023-12-28T02:17:43;32.60;;;14.30;;
57313;SDS011;53202;50.976;18.216;2023-12-28T02:18:49;38.50;;;14.90;;
57313;SDS011;53202;50.976;18.216;2023-12-28T02:19:52;27.80;;;14.70;;
57313;SDS011;53202;50.976;18.216;2023-12-28T02:20:54;27.60;;;16.00;;
57313;SDS011;53202;50.976;18.216;2023-12-28T02:21:56;34.50;;;16.10;;
57313;SDS011;53202;50.976;18.216;2023-12-28T02:22:59;41.40;;;16.40;;
57313;SDS011;53202;50.976;18.216;2023-12-28T02:24:01;26.40;;;14.20;;
57313;SDS011;53202;50.976;18.216;2023-12-28T02:25:09;31.70;;;15.70;;
57313;SDS011;53202;50.976;18.216;2023-12-28T02:26:12;23.90;;;14.70;;
57313;SDS011;53202;50.976;18.216;2023-12-28T02:27:13;29.10;;;15.80;;
57313;SDS011;53202;50.976;18.216;2023-12-28T02:28:14;25.20;;;14.40;;
57313;SDS011;53202;50.976;18.216;2023-12-28T02:29:15;22.80;;;14.00;;
57313;SDS011;53202;50.976;18.216;2023-12-28T02:30:17;25.70;;;14.20;;
57313;SDS011;53202;50.976;18.216;2023-12-28T02:31:25;24.80;;;13.00;;
57313;SDS011;53202;50.976;18.216;2023-12-28T02:33:11;25.80;;;13.90;;
57313;SDS011;53202;50.976;18.216;2023-12-28T02:34:09;24.20;;;13.30;;
57313;SDS011;53202;50.976;18.216;2023-12-28T02:35:16;37.70;;;13.20;;
57313;SDS011;53202;50.976;18.216;2023-12-28T02:36:18;30.30;;;15.40;;
57313;SDS011;53202;50.976;18.216;2023-12-28T02:37:23;23.30;;;13.20;;
57313;SDS011;53202;50.976;18.216;2023-12-28T02:38:25;29.00;;;14.30;;
57313;SDS011;53202;50.976;18.216;2023-12-28T02:39:28;20.70;;;12.60;;
57313;SDS011;53202;50.976;18.216;2023-12-28T02:40:31;24.10;;;13.80;;
57313;SDS011;53202;50.976;18.216;2023-12-28T02:41:36;28.30;;;14.20;;
57313;SDS011;53202;50.976;18.216;2023-12-28T02:42:38;24.90;;;13.70;;
57313;SDS011;53202;50.976;18.216;2023-12-28T02:43:39;24.70;;;12.90;;
57313;SDS011;53202;50.976;18.216;2023-12-28T02:44:40;22.40;;;13.00;;
57313;SDS011;53202;50.976;18.216;2023-12-28T02:45:41;23.60;;;13.50;;
57313;SDS011;53202;50.976;18.216;2023-12-28T02:46:42;24.70;;;13.50;;
57313;SDS011;53202;50.976;18.216;2023-12-28T02:47:43;26.40;;;12.70;;
57313;SDS011;53202;50.976;18.216;2023-12-28T02:48:44;25.40;;;12.60;;
57313;SDS011;53202;50.976;18.216;2023-12-28T02:49:45;22.50;;;11.40;;
57313;SDS011;53202;50.976;18.216;2023-12-28T02:50:46;22.40;;;12.40;;
57313;SDS011;53202;50.976;18.216;2023-12-28T02:51:47;26.30;;;12.50;;
57313;SDS011;53202;50.976;18.216;2023-12-28T02:52:48;22.40;;;12.40;;
57313;SDS011;53202;50.976;18.216;2023-12-28T02:53:49;23.40;;;12.20;;
57313;SDS011;53202;50.976;18.216;2023-12-28T02:54:50;18.70;;;11.20;;
57313;SDS011;53202;50.976;18.216;2023-12-28T02:55:51;24.20;;;14.10;;
57313;SDS011;53202;50.976;18.216;2023-12-28T02:56:52;19.90;;;13.50;;
57313;SDS011;53202;50.976;18.216;2023-12-28T02:57:54;27.50;;;15.80;;
57313;SDS011;53202;50.976;18.216;2023-12-28T02:58:56;27.90;;;15.60;;
57313;SDS011;53202;50.976;18.216;2023-12-28T02:59:57;34.10;;;16.60;;
57313;SDS011;53202;50.976;18.216;2023-12-28T03:01:01;30.20;;;18.40;;
57313;SDS011;53202;50.976;18.216;2023-12-28T03:02:02;36.40;;;19.10;;
57313;SDS011;53202;50.976;18.216;2023-12-28T03:03:03;30.60;;;18.80;;
57313;SDS011;53202;50.976;18.216;2023-12-28T03:04:04;36.70;;;20.70;;
57313;SDS011;53202;50.976;18.216;2023-12-28T03:05:06;31.90;;;18.80;;
57313;SDS011;53202;50.976;18.216;2023-12-28T03:06:07;32.80;;;17.90;;
57313;SDS011;53202;50.976;18.216;2023-12-28T03:07:09;25.50;;;15.90;;
57313;SDS011;53202;50.976;18.216;2023-12-28T03:08:09;34.30;;;16.30;;
57313;SDS011;53202;50.976;18.216;2023-12-28T03:09:10;35.60;;;15.80;;
57313;SDS011;53202;50.976;18.216;2023-12-28T03:10:11;25.80;;;16.10;;
57313;SDS011;53202;50.976;18.216;2023-12-28T03:11:12;28.40;;;17.30;;
57313;SDS011;53202;50.976;18.216;2023-12-28T03:12:14;32.60;;;17.20;;
57313;SDS011;53202;50.976;18.216;2023-12-28T03:13:16;29.50;;;16.90;;
57313;SDS011;53202;50.976;18.216;2023-12-28T03:14:17;37.50;;;18.40;;
57313;SDS011;53202;50.976;18.216;2023-12-28T03:15:18;36.60;;;16.70;;
57313;SDS011;53202;50.976;18.216;2023-12-28T03:16:19;31.60;;;15.60;;
57313;SDS011;53202;50.976;18.216;2023-12-28T03:17:20;25.40;;;15.50;;
57313;SDS011;53202;50.976;18.216;2023-12-28T03:18:22;26.80;;;14.90;;
57313;SDS011;53202;50.976;18.216;2023-12-28T03:19:23;20.60;;;12.90;;
57313;SDS011;53202;50.976;18.216;2023-12-28T03:20:24;28.20;;;15.70;;
57313;SDS011;53202;50.976;18.216;2023-12-28T03:21:25;24.00;;;13.60;;
57313;SDS011;53202;50.976;18.216;2023-12-28T03:22:26;24.60;;;12.00;;
57313;SDS011;53202;50.976;18.216;2023-12-28T03:23:27;24.30;;;11.90;;
57313;SDS011;53202;50.976;18.216;2023-12-28T03:24:27;22.70;;;11.80;;
57313;SDS011;53202;50.976;18.216;2023-12-28T03:25:29;16.80;;;11.70;;
57313;SDS011;53202;50.976;18.216;2023-12-28T03:26:29;21.20;;;11.70;;
57313;SDS011;53202;50.976;18.216;2023-12-28T03:27:30;23.60;;;12.60;;
57313;SDS011;53202;50.976;18.216;2023-12-28T03:28:31;24.40;;;12.60;;
57313;SDS011;53202;50.976;18.216;2023-12-28T03:29:33;18.90;;;11.80;;
57313;SDS011;53202;50.976;18.216;2023-12-28T03:30:34;30.70;;;13.30;;
57313;SDS011;53202;50.976;18.216;2023-12-28T03:31:39;25.40;;;12.60;;
57313;SDS011;53202;50.976;18.216;2023-12-28T03:32:40;26.70;;;13.10;;
57313;SDS011;53202;50.976;18.216;2023-12-28T03:33:41;25.60;;;12.80;;
57313;SDS011;53202;50.976;18.216;2023-12-28T03:34:42;21.60;;;10.90;;
57313;SDS011;53202;50.976;18.216;2023-12-28T03:35:43;20.50;;;10.80;;
57313;SDS011;53202;50.976;18.216;2023-12-28T03:36:44;18.00;;;12.10;;
57313;SDS011;53202;50.976;18.216;2023-12-28T03:37:45;23.00;;;10.70;;
57313;SDS011;53202;50.976;18.216;2023-12-28T03:38:46;23.20;;;12.20;;
57313;SDS011;53202;50.976;18.216;2023-12-28T03:39:47;27.20;;;12.20;;
57313;SDS011;53202;50.976;18.216;2023-12-28T03:40:48;19.80;;;11.70;;
57313;SDS011;53202;50.976;18.216;2023-12-28T03:41:50;23.60;;;11.10;;
57313;SDS011;53202;50.976;18.216;2023-12-28T03:42:53;18.30;;;10.90;;
57313;SDS011;53202;50.976;18.216;2023-12-28T03:43:54;27.10;;;11.70;;
57313;SDS011;53202;50.976;18.216;2023-12-28T03:44:55;25.50;;;11.90;;
57313;SDS011;53202;50.976;18.216;2023-12-28T03:45:56;18.20;;;11.60;;
57313;SDS011;53202;50.976;18.216;2023-12-28T03:46:57;19.20;;;12.00;;
57313;SDS011;53202;50.976;18.216;2023-12-28T03:47:58;16.70;;;11.80;;
57313;SDS011;53202;50.976;18.216;2023-12-28T03:48:59;22.00;;;12.50;;
57313;SDS011;53202;50.976;18.216;2023-12-28T03:50:00;17.00;;;11.10;;
57313;SDS011;53202;50.976;18.216;2023-12-28T03:51:01;32.60;;;12.20;;
57313;SDS011;53202;50.976;18.216;2023-12-28T03:52:03;26.20;;;12.60;;
57313;SDS011;53202;50.976;18.216;2023-12-28T03:53:04;18.80;;;12.00;;
57313;SDS011;53202;50.976;18.216;2023-12-28T03:54:05;26.70;;;12.90;;
57313;SDS011;53202;50.976;18.216;2023-12-28T03:55:06;26.10;;;12.00;;
57313;SDS011;53202;50.976;18.216;2023-12-28T03:56:07;21.60;;;12.40;;
57313;SDS011;53202;50.976;18.216;2023-12-28T03:57:08;23.90;;;12.50;;
57313;SDS011;53202;50.976;18.216;2023-12-28T03:58:10;21.70;;;11.90;;
57313;SDS011;53202;50.976;18.216;2023-12-28T03:59:12;23.40;;;12.30;;
57313;SDS011;53202;50.976;18.216;2023-12-28T04:00:13;17.90;;;10.70;;
57313;SDS011;53202;50.976;18.216;2023-12-28T04:01:16;24.20;;;11.70;;
57313;SDS011;53202;50.976;18.216;2023-12-28T04:02:18;21.70;;;11.60;;
57313;SDS011;53202;50.976;18.216;2023-12-28T04:03:19;23.70;;;11.60;;
57313;SDS011;53202;50.976;18.216;2023-12-28T04:04:20;33.50;;;12.00;;
57313;SDS011;53202;50.976;18.216;2023-12-28T04:05:21;22.60;;;11.80;;
57313;SDS011;53202;50.976;18.216;2023-12-28T04:06:22;22.80;;;12.20;;
57313;SDS011;53202;50.976;18.216;2023-12-28T04:07:23;19.60;;;11.50;;
57313;SDS011;53202;50.976;18.216;2023-12-28T04:08:24;23.50;;;12.40;;
57313;SDS011;53202;50.976;18.216;2023-12-28T04:09:25;23.60;;;12.90;;
57313;SDS011;53202;50.976;18.216;2023-12-28T04:10:28;18.80;;;11.80;;
57313;SDS011;53202;50.976;18.216;2023-12-28T04:11:31;17.80;;;11.00;;
57313;SDS011;53202;50.976;18.216;2023-12-28T04:12:33;27.80;;;12.20;;
57313;SDS011;53202;50.976;18.216;2023-12-28T04:13:33;25.00;;;13.30;;
57313;SDS011;53202;50.976;18.216;2023-12-28T04:14:35;20.30;;;12.10;;
57313;SDS011;53202;50.976;18.216;2023-12-28T04:15:36;29.20;;;14.40;;
57313;SDS011;53202;50.976;18.216;2023-12-28T04:16:37;20.00;;;12.30;;
57313;SDS011;53202;50.976;18.216;2023-12-28T04:17:37;22.80;;;13.50;;
57313;SDS011;53202;50.976;18.216;2023-12-28T04:18:38;21.20;;;12.00;;
57313;SDS011;53202;50.976;18.216;2023-12-28T04:19:40;23.20;;;12.90;;
57313;SDS011;53202;50.976;18.216;2023-12-28T04:20:42;22.00;;;12.10;;
57313;SDS011;53202;50.976;18.216;2023-12-28T04:21:45;25.30;;;13.40;;
57313;SDS011;53202;50.976;18.216;2023-12-28T04:22:46;19.20;;;12.40;;
57313;SDS011;53202;50.976;18.216;2023-12-28T04:23:47;26.90;;;11.70;;
57313;SDS011;53202;50.976;18.216;2023-12-28T04:24:48;18.00;;;11.10;;
57313;SDS011;53202;50.976;18.216;2023-12-28T04:25:49;22.10;;;11.80;;
57313;SDS011;53202;50.976;18.216;2023-12-28T04:26:50;25.80;;;11.30;;
57313;SDS011;53202;50.976;18.216;2023-12-28T04:27:51;21.20;;;11.20;;
57313;SDS011;53202;50.976;18.216;2023-12-28T04:28:52;20.70;;;11.50;;
57313;SDS011;53202;50.976;18.216;2023-12-28T04:29:53;19.50;;;10.80;;
57313;SDS011;53202;50.976;18.216;2023-12-28T04:30:54;17.00;;;11.10;;
57313;SDS011;53202;50.976;18.216;2023-12-28T04:31:55;22.20;;;11.30;;
57313;SDS011;53202;50.976;18.216;2023-12-28T04:32:56;19.90;;;10.80;;
57313;SDS011;53202;50.976;18.216;2023-12-28T04:33:57;19.60;;;10.90;;
57313;SDS011;53202;50.976;18.216;2023-12-28T04:34:58;31.10;;;11.80;;
57313;SDS011;53202;50.976;18.216;2023-12-28T04:36:01;16.80;;;9.70;;
57313;SDS011;53202;50.976;18.216;2023-12-28T04:37:04;18.60;;;11.60;;
57313;SDS011;53202;50.976;18.216;2023-12-28T04:38:05;18.60;;;11.00;;
57313;SDS011;53202;50.976;18.216;2023-12-28T04:39:09;28.50;;;14.60;;
57313;SDS011;53202;50.976;18.216;2023-12-28T04:40:10;22.40;;;12.30;;
57313;SDS011;53202;50.976;18.216;2023-12-28T04:41:11;23.10;;;12.50;;
57313;SDS011;53202;50.976;18.216;2023-12-28T04:42:12;19.30;;;12.20;;
57313;SDS011;53202;50.976;18.216;2023-12-28T04:43:13;21.90;;;13.20;;
57313;SDS011;53202;50.976;18.216;2023-12-28T04:44:13;21.50;;;12.60;;
57313;SDS011;53202;50.976;18.216;2023-12-28T04:45:14;25.60;;;14.20;;
57313;SDS011;53202;50.976;18.216;2023-12-28T04:46:15;26.30;;;12.70;;
57313;SDS011;53202;50.976;18.216;2023-12-28T04:47:16;19.70;;;11.40;;
57313;SDS011;53202;50.976;18.216;2023-12-28T04:48:17;35.90;;;15.00;;
57313;SDS011;53202;50.976;18.216;2023-12-28T04:49:24;25.80;;;14.20;;
57313;SDS011;53202;50.976;18.216;2023-12-28T04:50:25;29.40;;;14.20;;
57313;SDS011;53202;50.976;18.216;2023-12-28T04:51:26;26.70;;;15.00;;
57313;SDS011;53202;50.976;18.216;2023-12-28T04:52:27;27.00;;;14.70;;
57313;SDS011;53202;50.976;18.216;2023-12-28T04:53:28;26.90;;;13.10;;
57313;SDS011;53202;50.976;18.216;2023-12-28T04:54:29;34.50;;;16.30;;
57313;SDS011;53202;50.976;18.216;2023-12-28T04:55:30;24.30;;;14.00;;
57313;SDS011;53202;50.976;18.216;2023-12-28T04:56:31;22.60;;;13.30;;
57313;SDS011;53202;50.976;18.216;2023-12-28T04:57:32;24.80;;;13.50;;
57313;SDS011;53202;50.976;18.216;2023-12-28T04:58:33;28.20;;;13.80;;
57313;SDS011;53202;50.976;18.216;2023-12-28T04:59:38;29.70;;;13.50;;
57313;SDS011;53202;50.976;18.216;2023-12-28T05:00:39;29.70;;;14.20;;
57313;SDS011;53202;50.976;18.216;2023-12-28T05:01:41;27.20;;;14.70;;
57313;SDS011;53202;50.976;18.216;2023-12-28T05:02:42;27.40;;;14.10;;
57313;SDS011;53202;50.976;18.216;2023-12-28T05:03:44;20.90;;;12.80;;
57313;SDS011;53202;50.976;18.216;2023-12-28T05:04:44;23.60;;;13.30;;
57313;SDS011;53202;50.976;18.216;2023-12-28T05:05:46;23.20;;;12.60;;
57313;SDS011;53202;50.976;18.216;2023-12-28T05:06:47;24.30;;;12.30;;
57313;SDS011;53202;50.976;18.216;2023-12-28T05:07:47;27.00;;;13.30;;
57313;SDS011;53202;50.976;18.216;2023-12-28T05:08:48;27.10;;;12.90;;
57313;SDS011;53202;50.976;18.216;2023-12-28T05:09:49;22.80;;;11.70;;
57313;SDS011;53202;50.976;18.216;2023-12-28T05:10:51;23.30;;;14.00;;
57313;SDS011;53202;50.976;18.216;2023-12-28T05:11:52;22.80;;;12.60;;
57313;SDS011;53202;50.976;18.216;2023-12-28T05:12:53;22.20;;;12.00;;
57313;SDS011;53202;50.976;18.216;2023-12-28T05:13:54;18.80;;;12.40;;
57313;SDS011;53202;50.976;18.216;2023-12-28T05:14:55;24.90;;;12.80;;
57313;SDS011;53202;50.976;18.216;2023-12-28T05:15:56;25.10;;;12.90;;
57313;SDS011;53202;50.976;18.216;2023-12-28T05:16:56;26.10;;;12.80;;
57313;SDS011;53202;50.976;18.216;2023-12-28T05:17:57;21.20;;;13.00;;
57313;SDS011;53202;50.976;18.216;2023-12-28T05:18:58;18.90;;;12.20;;
57313;SDS011;53202;50.976;18.216;2023-12-28T05:19:59;20.70;;;11.80;;
57313;SDS011;53202;50.976;18.216;2023-12-28T05:21:00;26.20;;;13.30;;
57313;SDS011;53202;50.976;18.216;2023-12-28T05:22:01;26.60;;;13.80;;
57313;SDS011;53202;50.976;18.216;2023-12-28T05:23:04;24.30;;;12.30;;
57313;SDS011;53202;50.976;18.216;2023-12-28T05:24:05;27.30;;;13.00;;
57313;SDS011;53202;50.976;18.216;2023-12-28T05:25:06;27.40;;;14.90;;
57313;SDS011;53202;50.976;18.216;2023-12-28T05:26:09;33.30;;;14.30;;
57313;SDS011;53202;50.976;18.216;2023-12-28T05:27:10;24.60;;;14.20;;
57313;SDS011;53202;50.976;18.216;2023-12-28T05:28:11;28.20;;;13.70;;
57313;SDS011;53202;50.976;18.216;2023-12-28T05:29:12;26.70;;;14.10;;
57313;SDS011;53202;50.976;18.216;2023-12-28T05:30:13;26.20;;;14.00;;
57313;SDS011;53202;50.976;18.216;2023-12-28T05:31:14;26.10;;;15.20;;
57313;SDS011;53202;50.976;18.216;2023-12-28T05:32:15;22.40;;;13.60;;
57313;SDS011;53202;50.976;18.216;2023-12-28T05:33:16;22.60;;;14.00;;
57313;SDS011;53202;50.976;18.216;2023-12-28T05:34:17;19.90;;;13.00;;
57313;SDS011;53202;50.976;18.216;2023-12-28T05:35:17;25.00;;;13.70;;
57313;SDS011;53202;50.976;18.216;2023-12-28T05:36:19;27.40;;;13.20;;
57313;SDS011;53202;50.976;18.216;2023-12-28T05:37:19;21.40;;;13.90;;
57313;SDS011;53202;50.976;18.216;2023-12-28T05:38:20;26.60;;;14.10;;
57313;SDS011;53202;50.976;18.216;2023-12-28T05:39:21;23.20;;;13.70;;
57313;SDS011;53202;50.976;18.216;2023-12-28T05:40:22;20.30;;;12.70;;
57313;SDS011;53202;50.976;18.216;2023-12-28T05:41:23;23.90;;;14.10;;
57313;SDS011;53202;50.976;18.216;2023-12-28T05:42:24;25.80;;;12.20;;
57313;SDS011;53202;50.976;18.216;2023-12-28T05:43:25;32.30;;;12.90;;
57313;SDS011;53202;50.976;18.216;2023-12-28T05:44:26;26.60;;;14.20;;
57313;SDS011;53202;50.976;18.216;2023-12-28T05:45:27;29.50;;;14.70;;
57313;SDS011;53202;50.976;18.216;2023-12-28T05:46:28;23.60;;;13.80;;
57313;SDS011;53202;50.976;18.216;2023-12-28T05:47:29;26.90;;;13.20;;
57313;SDS011;53202;50.976;18.216;2023-12-28T05:48:30;26.00;;;15.20;;
57313;SDS011;53202;50.976;18.216;2023-12-28T05:49:31;24.90;;;14.80;;
57313;SDS011;53202;50.976;18.216;2023-12-28T05:50:33;23.80;;;13.80;;
57313;SDS011;53202;50.976;18.216;2023-12-28T05:51:37;25.70;;;13.20;;
57313;SDS011;53202;50.976;18.216;2023-12-28T05:52:40;32.80;;;14.30;;
57313;SDS011;53202;50.976;18.216;2023-12-28T05:53:41;27.70;;;15.60;;
57313;SDS011;53202;50.976;18.216;2023-12-28T05:54:42;32.40;;;15.90;;